Time;durP1;ratioP1;P1;durP2;ratioP2;P2;SDS_P1;SDS_P2;PMS_P1;PMS_P2;Temp;Humidity;BMP_temperature;BMP_pressure;BME280_temperature;BME280_humidity;BME280_pressure;Samples;Min_cycle;Max_cycle;Signal;HPM_P1;HPM_P2
2022/06/11 00:00:23;;;;;;;1.42;0.30;;;12.90;99.90;;;;;;5072871;28;20024;-71
2022/06/11 00:02:51;;;;;;;2.00;0.40;;;13.00;99.90;;;;;;5074011;28;20389;-71
2022/06/11 00:05:21;;;;;;;1.00;0.30;;;13.10;99.90;;;;;;5073898;28;20017;-70
2022/06/11 00:07:50;;;;;;;1.70;0.30;;;13.20;99.90;;;;;;5072484;28;20041;-72
2022/06/11 00:10:18;;;;;;;0.60;0.25;;;13.30;99.90;;;;;;5073721;28;20016;-72
2022/06/11 00:12:45;;;;;;;0.30;0.30;;;13.30;99.90;;;;;;5073867;28;20020;-71
2022/06/11 00:15:13;;;;;;;0.70;0.30;;;13.20;99.90;;;;;;5073574;28;20533;-71
2022/06/11 00:17:41;;;;;;;0.60;0.20;;;13.20;99.90;;;;;;5072337;28;20115;-72
2022/06/11 00:20:10;;;;;;;1.55;0.50;;;13.30;99.90;;;;;;5072235;28;20024;-72
2022/06/11 00:22:37;;;;;;;1.75;0.30;;;13.40;99.90;;;;;;5073684;28;20031;-72
2022/06/11 00:25:06;;;;;;;0.55;0.20;;;13.60;99.90;;;;;;5073540;28;20028;-72
2022/06/11 00:27:33;;;;;;;0.88;0.38;;;13.50;99.90;;;;;;5073562;28;20027;-71
2022/06/11 00:30:01;;;;;;;0.75;0.35;;;13.50;99.90;;;;;;5073501;28;20035;-72
2022/06/11 00:32:28;;;;;;;1.38;0.35;;;13.50;99.90;;;;;;5073675;28;20118;-71
2022/06/11 00:34:59;;;;;;;0.38;0.20;;;13.50;99.90;;;;;;5073559;28;20063;-72
2022/06/11 00:37:26;;;;;;;1.25;0.40;;;13.60;99.90;;;;;;5073773;28;20194;-73
2022/06/11 00:39:58;;;;;;;1.33;0.40;;;13.60;99.90;;;;;;5072094;28;20135;-73
2022/06/11 00:42:33;;;;;;;1.17;0.55;;;13.70;99.90;;;;;;5072021;28;20016;-72
2022/06/11 00:45:22;;;;;;;1.63;0.50;;;13.70;99.90;;;;;;5073410;28;20013;-73
2022/06/11 00:48:01;;;;;;;0.85;0.55;;;13.80;99.90;;;;;;5073350;28;20031;-72
2022/06/11 00:50:33;;;;;;;1.52;0.40;;;13.90;99.90;;;;;;5073450;28;20082;-72
2022/06/11 00:53:01;;;;;;;1.48;0.55;;;13.90;99.90;;;;;;5073674;28;20100;-71
2022/06/11 00:55:36;;;;;;;1.20;0.60;;;13.90;99.90;;;;;;5073007;28;20178;-72
2022/06/11 00:58:11;;;;;;;1.13;0.50;;;14.10;99.90;;;;;;5071770;28;20031;-71
2022/06/11 01:00:47;;;;;;;1.92;0.60;;;14.10;99.90;;;;;;5072895;28;20025;-72
2022/06/11 01:03:28;;;;;;;1.33;0.85;;;14.20;99.90;;;;;;5071703;28;20020;-71
2022/06/11 01:06:38;;;;;;;1.48;0.75;;;14.30;99.90;;;;;;5072997;28;20035;-70
2022/06/11 01:09:26;;;;;;;2.00;0.30;;;14.30;99.90;;;;;;5073455;28;20120;-72
2022/06/11 01:11:59;;;;;;;0.20;0.20;;;14.40;99.90;;;;;;5071590;28;20059;-74
2022/06/11 01:14:35;;;;;;;2.28;0.47;;;14.40;99.90;;;;;;5073080;28;20016;-74
2022/06/11 01:17:29;;;;;;;1.83;0.50;;;14.50;99.90;;;;;;5072719;28;20089;-73
2022/06/11 01:20:31;;;;;;;2.15;0.43;;;14.50;99.90;;;;;;5072959;28;20032;-71
2022/06/11 01:23:34;;;;;;;0.65;0.43;;;14.60;99.90;;;;;;5072724;28;20027;-74
2022/06/11 01:26:12;;;;;;;0.60;0.40;;;14.60;99.90;;;;;;5072787;28;20048;-73
2022/06/11 01:28:59;;;;;;;1.02;0.50;;;14.50;99.90;;;;;;5072651;28;20354;-73
2022/06/11 01:31:31;;;;;;;1.42;0.40;;;14.70;99.90;;;;;;5072695;28;20016;-73
2022/06/11 01:34:13;;;;;;;2.67;0.57;;;14.60;99.90;;;;;;5073003;28;20020;-73
2022/06/11 01:36:44;;;;;;;1.42;0.55;;;14.60;99.90;;;;;;5073147;28;20028;-73
2022/06/11 01:39:32;;;;;;;1.70;0.60;;;14.60;99.90;;;;;;5072860;28;20078;-73
2022/06/11 01:42:07;;;;;;;1.63;0.70;;;14.90;99.90;;;;;;5071168;28;20036;-73
2022/06/11 01:44:38;;;;;;;3.30;0.60;;;15.00;99.90;;;;;;5072744;28;20357;-74
2022/06/11 01:47:06;;;;;;;1.20;0.40;;;14.90;99.90;;;;;;5072490;28;20055;-74
2022/06/11 01:49:42;;;;;;;1.98;0.50;;;14.80;99.90;;;;;;5072473;28;20025;-74
2022/06/11 01:52:42;;;;;;;1.60;0.85;;;14.90;99.90;;;;;;5072705;28;20103;-74
2022/06/11 01:55:50;;;;;;;1.55;0.50;;;15.00;99.90;;;;;;5071067;28;20064;-73
2022/06/11 01:58:45;;;;;;;1.05;0.50;;;15.00;99.90;;;;;;5072338;28;20025;-73
2022/06/11 02:01:12;;;;;;;2.15;0.80;;;15.10;99.90;;;;;;5072383;28;20031;-73
2022/06/11 02:04:01;;;;;;;1.20;0.77;;;15.10;99.90;;;;;;5071021;28;20028;-73
2022/06/11 02:06:50;;;;;;;1.48;0.40;;;15.10;99.90;;;;;;5072289;28;20024;-72
2022/06/11 02:09:48;;;;;;;3.22;0.75;;;15.20;99.90;;;;;;5072388;28;20048;-73
2022/06/11 02:12:30;;;;;;;1.00;0.35;;;15.30;99.90;;;;;;5072463;28;20025;-72
2022/06/11 02:15:07;;;;;;;0.52;0.30;;;15.30;99.90;;;;;;5075655;28;20021;-72
2022/06/11 02:17:40;;;;;;;1.38;0.40;;;15.30;99.90;;;;;;5074538;28;20109;-72
2022/06/11 02:20:16;;;;;;;1.13;0.38;;;15.30;99.90;;;;;;5076018;28;20103;-72
2022/06/11 02:22:50;;;;;;;2.55;0.47;;;15.40;99.90;;;;;;5076189;28;20024;-72
2022/06/11 02:25:31;;;;;;;1.75;0.65;;;15.50;99.90;;;;;;5074632;28;20385;-72
2022/06/11 02:28:04;;;;;;;1.00;0.40;;;15.60;99.90;;;;;;5075919;28;20361;-72
2022/06/11 02:30:33;;;;;;;3.28;0.90;;;15.70;99.90;;;;;;5074498;28;20123;-72
2022/06/11 02:33:01;;;;;;;0.88;0.40;;;15.90;99.90;;;;;;5075701;28;20651;-72
2022/06/11 02:35:51;;;;;;;0.70;0.38;;;15.90;99.90;;;;;;5075799;28;20035;-72
2022/06/11 02:38:23;;;;;;;0.67;0.33;;;15.90;99.90;;;;;;5075759;28;20384;-72
2022/06/11 02:41:02;;;;;;;1.42;0.40;;;15.90;99.90;;;;;;5075674;28;20021;-72
2022/06/11 02:43:30;;;;;;;0.40;0.28;;;16.00;99.90;;;;;;5075625;28;20024;-72
2022/06/11 02:45:57;;;;;;;1.77;0.38;;;16.10;99.90;;;;;;5074259;28;20024;-72
2022/06/11 02:48:25;;;;;;;1.23;0.30;;;16.10;99.90;;;;;;5075534;28;20051;-72
2022/06/11 02:50:53;;;;;;;1.05;0.45;;;16.00;99.90;;;;;;5074186;28;20020;-72
2022/06/11 02:53:20;;;;;;;1.10;0.43;;;16.00;99.90;;;;;;5074039;28;20048;-72
2022/06/11 02:55:48;;;;;;;5.20;0.55;;;16.20;99.90;;;;;;5073957;28;20035;-73
2022/06/11 02:58:15;;;;;;;0.57;0.40;;;16.20;99.90;;;;;;5075197;28;20023;-72
2022/06/11 03:00:46;;;;;;;2.25;0.77;;;16.20;99.90;;;;;;5075461;28;20017;-72
2022/06/11 03:03:14;;;;;;;1.45;0.40;;;16.30;99.90;;;;;;5075284;28;20021;-72
2022/06/11 03:05:41;;;;;;;1.58;0.30;;;16.20;99.90;;;;;;5075178;28;20024;-72
2022/06/11 03:08:09;;;;;;;1.48;0.50;;;16.30;99.90;;;;;;5074976;28;20048;-72
2022/06/11 03:10:37;;;;;;;0.85;0.40;;;16.50;99.90;;;;;;5073682;28;20024;-72
2022/06/11 03:13:06;;;;;;;0.75;0.40;;;16.50;99.90;;;;;;5073642;28;20028;-72
2022/06/11 03:15:33;;;;;;;0.98;0.20;;;16.60;99.90;;;;;;5075446;28;20052;-72
2022/06/11 03:18:01;;;;;;;1.30;0.30;;;16.50;98.90;;;;;;5074975;28;20388;-73
2022/06/11 03:20:31;;;;;;;1.45;0.30;;;16.40;99.40;;;;;;5075184;28;20020;-74
2022/06/11 03:22:58;;;;;;;2.93;0.50;;;16.50;99.60;;;;;;5073446;28;20472;-72
2022/06/11 03:25:26;;;;;;;0.52;0.38;;;16.40;99.20;;;;;;5073189;28;20024;-72
2022/06/11 03:27:53;;;;;;;0.77;0.32;;;16.50;99.50;;;;;;5073131;28;20052;-73
2022/06/11 03:30:21;;;;;;;1.17;0.30;;;16.70;99.40;;;;;;5073037;28;20388;-73
2022/06/11 03:32:49;;;;;;;0.63;0.30;;;16.70;98.50;;;;;;5074407;28;20035;-72
2022/06/11 03:35:16;;;;;;;0.80;0.20;;;16.70;98.30;;;;;;5072937;28;20020;-72
2022/06/11 03:37:44;;;;;;;1.65;0.50;;;16.70;98.00;;;;;;5072959;28;20507;-72
2022/06/11 03:40:12;;;;;;;1.35;0.50;;;16.80;98.30;;;;;;5072944;28;20025;-73
2022/06/11 03:42:40;;;;;;;2.50;0.70;;;16.90;99.10;;;;;;5074208;28;20539;-72
2022/06/11 03:45:09;;;;;;;1.00;0.35;;;17.00;99.30;;;;;;5074060;28;20047;-74
2022/06/11 03:47:38;;;;;;;1.05;0.20;;;17.00;98.10;;;;;;5072744;28;20032;-73
2022/06/11 03:50:17;;;;;;;1.48;0.28;;;17.00;98.00;;;;;;5074059;28;20070;-73
2022/06/11 03:52:44;;;;;;;0.95;0.38;;;17.00;97.80;;;;;;5074339;28;20381;-73
2022/06/11 03:55:12;;;;;;;0.30;0.17;;;16.70;97.60;;;;;;5074113;28;20107;-74
2022/06/11 03:57:40;;;;;;;0.60;0.30;;;16.70;98.20;;;;;;5074001;28;20081;-72
2022/06/11 04:00:11;;;;;;;0.60;0.20;;;16.80;98.20;;;;;;5073806;28;20028;-72
2022/06/11 04:02:38;;;;;;;;;;;16.90;98.00;;;;;;5074390;28;20020;-72
2022/06/11 04:05:06;;;;;;;1.73;0.30;;;16.80;97.30;;;;;;5072340;28;19905;-73
2022/06/11 04:07:35;;;;;;;2.22;0.40;;;16.80;96.80;;;;;;5072242;28;20450;-73
2022/06/11 04:10:04;;;;;;;0.55;0.20;;;16.80;96.90;;;;;;5073813;28;20113;-72
2022/06/11 04:12:31;;;;;;;0.80;0.28;;;16.90;96.50;;;;;;5073672;28;20034;-72
2022/06/11 04:14:58;;;;;;;1.70;0.30;;;17.00;96.90;;;;;;5073449;28;20111;-72
2022/06/11 04:17:31;;;;;;;0.13;0.10;;;17.10;96.60;;;;;;5073464;28;20024;-72
2022/06/11 04:19:59;;;;;;;1.67;0.40;;;17.10;96.50;;;;;;5072082;28;20023;-71
2022/06/11 04:22:26;;;;;;;0.98;0.35;;;17.00;96.70;;;;;;5073407;28;20070;-71
2022/06/11 04:24:54;;;;;;;0.95;0.20;;;16.80;96.60;;;;;;5073354;28;20100;-71
2022/06/11 04:27:22;;;;;;;1.85;0.20;;;16.70;96.70;;;;;;5071964;28;20021;-71
2022/06/11 04:29:54;;;;;;;0.45;0.20;;;16.60;96.60;;;;;;5073463;28;20025;-71
2022/06/11 04:32:23;;;;;;;1.13;0.20;;;16.70;96.90;;;;;;5073082;28;20037;-71
2022/06/11 04:34:51;;;;;;;0.77;0.30;;;16.40;96.50;;;;;;5073259;28;20077;-72
2022/06/11 04:37:26;;;;;;;0.93;0.22;;;16.30;96.70;;;;;;5071365;28;20063;-71
2022/06/11 04:39:56;;;;;;;1.48;0.38;;;16.20;97.20;;;;;;5073428;28;20498;-71
2022/06/11 04:42:24;;;;;;;1.75;0.20;;;16.10;97.70;;;;;;5073248;28;20017;-72
2022/06/11 04:44:52;;;;;;;1.45;0.50;;;16.10;98.00;;;;;;5073264;28;20028;-72
2022/06/11 04:47:24;;;;;;;1.77;0.47;;;16.10;98.20;;;;;;5073172;28;20070;-72
2022/06/11 04:49:54;;;;;;;1.17;0.30;;;16.10;97.50;;;;;;5071980;28;20101;-72
2022/06/11 04:52:22;;;;;;;0.60;0.30;;;16.10;97.40;;;;;;5071787;28;20124;-72
2022/06/11 04:54:50;;;;;;;0.60;0.30;;;16.10;97.40;;;;;;5071904;28;20035;-73
2022/06/11 04:57:18;;;;;;;2.03;0.30;;;16.10;98.00;;;;;;5071568;28;20135;-71
2022/06/11 04:59:46;;;;;;;1.23;0.38;;;16.10;97.00;;;;;;5073029;28;20028;-72
2022/06/11 05:02:13;;;;;;;1.23;0.22;;;16.10;99.90;;;;;;5072865;28;20024;-71
2022/06/11 05:04:41;;;;;;;0.93;0.30;;;16.00;97.30;;;;;;5073047;28;20545;-71
2022/06/11 05:07:08;;;;;;;1.17;0.30;;;16.00;97.40;;;;;;5071427;28;20047;-71
2022/06/11 05:09:36;;;;;;;2.50;0.38;;;16.00;96.90;;;;;;5072975;28;20101;-72
2022/06/11 05:12:04;;;;;;;1.08;0.38;;;15.90;96.60;;;;;;5072751;28;20032;-70
2022/06/11 05:14:31;;;;;;;1.30;0.38;;;15.90;97.30;;;;;;5072820;28;20518;-71
2022/06/11 05:16:59;;;;;;;1.15;0.30;;;15.90;97.10;;;;;;5072726;28;20074;-70
2022/06/11 05:19:26;;;;;;;1.27;0.30;;;15.90;97.40;;;;;;5072895;28;20534;-71
2022/06/11 05:21:55;;;;;;;1.52;0.35;;;15.90;97.40;;;;;;5072857;28;20449;-70
2022/06/11 05:24:23;;;;;;;1.65;0.52;;;15.90;98.30;;;;;;5072775;28;20027;-70
2022/06/11 05:26:57;;;;;;;1.10;0.30;;;15.90;98.50;;;;;;5072847;28;20024;-71
2022/06/11 05:29:33;;;;;;;1.55;0.40;;;15.80;97.10;;;;;;5072721;28;20025;-70
2022/06/11 05:32:01;;;;;;;1.05;0.52;;;15.80;97.60;;;;;;5072745;28;20021;-70
2022/06/11 05:34:30;;;;;;;2.20;0.40;;;15.70;96.90;;;;;;5072520;28;20027;-70
2022/06/11 05:36:58;;;;;;;0.75;0.40;;;15.70;96.90;;;;;;5072563;28;20027;-70
2022/06/11 05:39:27;;;;;;;0.80;0.20;;;15.60;96.80;;;;;;5071233;28;20050;-69
2022/06/11 05:41:54;;;;;;;0.95;0.30;;;15.60;96.80;;;;;;5072586;28;20017;-69
2022/06/11 05:44:22;;;;;;;1.98;0.40;;;15.60;97.10;;;;;;5072598;28;20036;-70
2022/06/11 05:46:49;;;;;;;1.85;0.90;;;15.60;97.80;;;;;;5072530;28;20380;-69
2022/06/11 05:49:21;;;;;;;1.10;0.40;;;15.50;97.40;;;;;;5074813;28;20052;-70
2022/06/11 05:51:57;;;;;;;2.10;0.50;;;15.40;97.90;;;;;;5076756;28;20027;-70
2022/06/11 05:54:27;;;;;;;1.52;0.40;;;15.40;98.40;;;;;;5076570;28;20039;-70
2022/06/11 05:56:56;;;;;;;1.90;0.40;;;15.30;97.40;;;;;;5075070;28;20059;-70
2022/06/11 05:59:29;;;;;;;1.20;0.50;;;15.30;98.80;;;;;;5076274;28;20532;-70
2022/06/11 06:01:59;;;;;;;1.90;0.50;;;15.20;97.60;;;;;;5076451;28;20023;-70
2022/06/11 06:04:27;;;;;;;2.22;0.63;;;15.20;98.10;;;;;;5076282;28;20151;-70
2022/06/11 06:06:54;;;;;;;2.50;0.75;;;15.10;98.00;;;;;;5076122;28;20051;-70
2022/06/11 06:09:21;;;;;;;1.45;0.52;;;15.00;97.80;;;;;;5076172;28;20021;-71
2022/06/11 06:11:48;;;;;;;1.40;0.50;;;15.00;97.90;;;;;;5076218;28;20488;-69
2022/06/11 06:14:16;;;;;;;0.68;0.40;;;14.90;97.60;;;;;;5075996;28;20504;-70
2022/06/11 06:16:43;;;;;;;1.08;0.40;;;14.90;97.70;;;;;;5074749;28;20394;-70
2022/06/11 06:19:10;;;;;;;1.98;0.32;;;14.80;97.50;;;;;;5074640;28;20021;-70
2022/06/11 06:21:38;;;;;;;2.88;0.47;;;14.80;96.50;;;;;;5076081;28;20027;-71
2022/06/11 06:24:06;;;;;;;1.27;0.60;;;14.80;96.60;;;;;;5074602;28;20364;-71
2022/06/11 06:26:34;;;;;;;2.25;0.50;;;14.80;97.20;;;;;;5075948;28;20051;-72
2022/06/11 06:29:02;;;;;;;1.30;0.40;;;14.70;97.90;;;;;;5075865;28;20029;-70
2022/06/11 06:31:29;;;;;;;0.90;0.45;;;14.60;97.10;;;;;;5074551;28;20054;-69
2022/06/11 06:34:00;;;;;;;3.08;0.40;;;14.60;97.10;;;;;;5075684;28;20032;-70
2022/06/11 06:36:29;;;;;;;1.67;0.30;;;14.50;96.90;;;;;;5074439;28;20485;-70
2022/06/11 06:38:57;;;;;;;1.00;0.30;;;14.40;97.10;;;;;;5075664;28;20095;-70
2022/06/11 06:41:25;;;;;;;0.98;0.30;;;14.30;96.90;;;;;;5075639;28;20016;-70
2022/06/11 06:43:52;;;;;;;1.48;0.40;;;14.30;97.20;;;;;;5075633;28;20021;-71
2022/06/11 06:46:20;;;;;;;0.88;0.30;;;14.20;97.50;;;;;;5075977;28;20021;-69
2022/06/11 06:48:48;;;;;;;2.60;0.60;;;14.20;97.40;;;;;;5075552;28;20025;-69
2022/06/11 06:51:18;;;;;;;3.05;0.70;;;14.20;98.00;;;;;;5074047;28;20028;-70
2022/06/11 06:53:46;;;;;;;1.57;0.37;;;14.00;97.90;;;;;;5075494;28;20033;-71
2022/06/11 06:56:13;;;;;;;2.53;0.47;;;14.00;97.60;;;;;;5073870;28;20024;-70
2022/06/11 06:58:41;;;;;;;1.45;0.70;;;13.90;98.50;;;;;;5075385;28;20025;-71
2022/06/11 07:01:08;;;;;;;1.88;0.50;;;13.80;98.50;;;;;;5074755;28;20024;-71
2022/06/11 07:03:36;;;;;;;2.40;0.50;;;13.70;99.00;;;;;;5073631;28;20051;-71
2022/06/11 07:06:05;;;;;;;3.10;0.70;;;13.60;98.80;;;;;;5075031;28;20024;-71
2022/06/11 07:08:32;;;;;;;2.45;0.50;;;13.60;98.10;;;;;;5073610;28;20474;-69
2022/06/11 07:11:00;;;;;;;1.88;0.50;;;13.60;99.90;;;;;;5075428;28;20017;-72
2022/06/11 07:13:27;;;;;;;3.30;0.45;;;13.60;98.00;;;;;;5075044;28;20016;-72
2022/06/11 07:15:56;;;;;;;3.38;0.55;;;13.60;98.10;;;;;;5075091;28;20435;-70
2022/06/11 07:18:39;;;;;;;1.20;0.40;;;13.50;98.50;;;;;;5075038;28;20021;-72
2022/06/11 07:21:13;;;;;;;1.08;0.52;;;13.50;98.80;;;;;;5073722;28;20028;-71
2022/06/11 07:23:45;;;;;;;1.50;0.63;;;13.30;98.70;;;;;;5073713;28;20021;-72
2022/06/11 07:26:21;;;;;;;2.00;0.75;;;13.20;99.40;;;;;;5074969;28;20031;-71
2022/06/11 07:28:59;;;;;;;3.00;1.30;;;13.20;99.10;;;;;;5074853;28;20468;-71
2022/06/11 07:31:30;;;;;;;2.25;0.80;;;13.10;99.80;;;;;;5074850;28;20507;-71
2022/06/11 07:33:58;;;;;;;2.13;0.68;;;12.90;99.80;;;;;;5074771;28;20020;-72
2022/06/11 07:36:26;;;;;;;1.95;0.80;;;12.90;99.80;;;;;;5074544;28;20039;-72
2022/06/11 07:38:54;;;;;;;1.58;0.50;;;12.90;99.70;;;;;;5074521;28;20024;-71
2022/06/11 07:41:21;;;;;;;2.08;0.70;;;12.90;99.90;;;;;;5074580;28;20021;-71
2022/06/11 07:43:48;;;;;;;3.28;0.70;;;12.90;99.90;;;;;;5073121;28;20025;-70
2022/06/11 07:46:16;;;;;;;2.20;0.68;;;12.80;99.60;;;;;;5074572;28;20055;-73
2022/06/11 07:48:43;;;;;;;2.85;1.17;;;12.80;99.80;;;;;;5075158;28;20526;-72
2022/06/11 07:51:10;;;;;;;1.80;0.90;;;12.70;99.90;;;;;;5073069;28;20035;-70
2022/06/11 07:53:39;;;;;;;2.25;0.70;;;12.80;99.90;;;;;;5073005;28;20025;-72
2022/06/11 07:56:06;;;;;;;2.13;0.70;;;12.80;99.50;;;;;;5072836;28;20032;-73
2022/06/11 07:58:33;;;;;;;1.50;0.60;;;12.90;99.60;;;;;;5074441;28;20460;-71
2022/06/11 08:01:01;;;;;;;2.50;0.50;;;12.80;99.90;;;;;;5074077;28;20027;-72
2022/06/11 08:03:31;;;;;;;1.58;0.50;;;12.80;99.90;;;;;;5074340;28;20531;-73
2022/06/11 08:06:02;;;;;;;4.22;0.57;;;12.70;99.90;;;;;;5074043;28;20023;-69
2022/06/11 08:08:31;;;;;;;1.27;0.63;;;12.60;99.90;;;;;;5072391;28;20453;-71
2022/06/11 08:10:59;;;;;;;1.92;0.80;;;12.50;99.90;;;;;;5073267;28;20100;-73
2022/06/11 08:13:27;;;;;;;2.83;0.80;;;12.50;99.90;;;;;;5073771;28;20040;-72
2022/06/11 08:15:55;;;;;;;2.58;0.90;;;12.40;99.90;;;;;;5072381;28;20020;-73
2022/06/11 08:18:24;;;;;;;2.63;0.93;;;12.30;99.90;;;;;;5072300;28;20020;-73
2022/06/11 08:20:52;;;;;;;3.00;1.00;;;12.10;99.90;;;;;;5072378;28;20082;-73
2022/06/11 08:23:21;;;;;;;3.75;0.70;;;12.00;99.90;;;;;;5073862;28;20422;-73
2022/06/11 08:25:49;;;;;;;1.63;0.68;;;12.00;99.90;;;;;;5072458;28;20029;-73
2022/06/11 08:28:17;;;;;;;3.08;1.05;;;12.00;99.90;;;;;;5074059;28;20055;-72
2022/06/11 08:30:46;;;;;;;2.30;1.00;;;11.90;99.90;;;;;;5072221;28;20055;-72
2022/06/11 08:33:14;;;;;;;2.05;0.90;;;11.80;99.90;;;;;;5073545;28;20504;-73
2022/06/11 08:35:42;;;;;;;5.13;1.33;;;11.50;99.90;;;;;;5073454;28;20578;-73
2022/06/11 08:38:10;;;;;;;2.28;1.20;;;11.50;99.90;;;;;;5072439;28;20025;-72
2022/06/11 08:40:45;;;;;;;4.18;1.30;;;11.60;99.90;;;;;;5073568;28;20021;-72
2022/06/11 08:43:29;;;;;;;2.42;1.48;;;11.50;99.90;;;;;;5073390;28;20027;-75
2022/06/11 08:46:13;;;;;;;1.58;0.98;;;11.40;99.90;;;;;;5072045;28;20024;-74
2022/06/11 08:49:01;;;;;;;3.10;1.50;;;11.30;99.90;;;;;;5072124;28;20025;-74
2022/06/11 08:51:47;;;;;;;3.20;1.63;;;11.20;99.90;;;;;;5073452;28;20544;-72
2022/06/11 08:54:36;;;;;;;1.63;0.98;;;11.30;99.90;;;;;;5071992;28;20373;-75
2022/06/11 08:57:22;;;;;;;2.80;1.50;;;11.30;99.90;;;;;;5071896;28;20111;-74
2022/06/11 09:00:07;;;;;;;2.28;1.20;;;11.20;99.90;;;;;;5071892;28;20034;-72
2022/06/11 09:03:05;;;;;;;3.38;1.55;;;11.20;99.90;;;;;;5073470;28;20092;-70
2022/06/11 09:05:40;;;;;;;4.18;1.65;;;11.10;99.90;;;;;;5073391;28;20020;-70
2022/06/11 09:08:35;;;;;;;2.85;1.30;;;11.10;99.90;;;;;;5072868;28;20049;-74
2022/06/11 09:11:12;;;;;;;3.00;1.30;;;11.10;99.90;;;;;;5073066;28;20024;-72
2022/06/11 09:13:57;;;;;;;2.35;1.20;;;11.10;99.90;;;;;;5073096;28;20048;-71
2022/06/11 09:16:58;;;;;;;2.53;0.93;;;11.10;99.90;;;;;;5071648;28;20025;-71
2022/06/11 09:19:40;;;;;;;3.22;1.25;;;11.10;99.90;;;;;;5073183;28;20020;-71
2022/06/11 09:22:38;;;;;;;2.20;0.80;;;11.00;99.90;;;;;;5072729;28;20538;-71
2022/06/11 09:25:47;;;;;;;2.30;0.95;;;11.10;99.90;;;;;;5073099;28;20020;-72
2022/06/11 09:28:29;;;;;;;2.17;0.90;;;11.20;99.90;;;;;;5070918;28;20039;-72
2022/06/11 09:31:12;;;;;;;2.42;1.00;;;11.20;99.90;;;;;;5073165;28;20388;-73
2022/06/11 09:33:44;;;;;;;2.13;0.85;;;11.30;99.90;;;;;;5071475;28;20017;-72
2022/06/11 09:36:42;;;;;;;2.75;1.02;;;11.20;99.90;;;;;;5073174;28;20024;-73
2022/06/11 09:39:24;;;;;;;3.67;1.00;;;11.10;99.90;;;;;;5070917;28;20154;-73
2022/06/11 09:41:57;;;;;;;2.53;0.70;;;11.10;99.90;;;;;;5071447;28;20032;-72
2022/06/11 09:44:56;;;;;;;1.95;0.80;;;11.10;99.90;;;;;;5072641;28;20099;-72
2022/06/11 09:47:45;;;;;;;2.10;0.80;;;11.10;99.90;;;;;;5072494;28;20554;-72
2022/06/11 09:50:15;;;;;;;3.25;0.80;;;11.10;99.90;;;;;;5071221;28;20459;-71
2022/06/11 09:53:12;;;;;;;3.85;0.70;;;11.00;99.90;;;;;;5072216;28;20020;-73
2022/06/11 09:55:48;;;;;;;2.50;0.77;;;11.00;99.90;;;;;;5046224;28;20493;-71
2022/06/11 09:58:39;;;;;;;2.85;1.10;;;11.00;99.90;;;;;;5073020;28;20032;-71
2022/06/11 10:01:13;;;;;;;;;;;11.00;99.90;;;;;;5073238;28;20024;-72
2022/06/11 10:03:54;;;;;;;3.40;0.85;;;10.90;99.90;;;;;;5072563;28;19912;-71
2022/06/11 10:06:41;;;;;;;2.90;0.95;;;10.90;99.90;;;;;;5072441;28;20033;-72
2022/06/11 10:09:41;;;;;;;3.17;0.93;;;10.80;99.90;;;;;;5070863;28;20044;-71
2022/06/11 10:12:23;;;;;;;3.83;0.70;;;10.90;99.90;;;;;;5072083;28;20016;-72
2022/06/11 10:15:02;;;;;;;3.40;0.80;;;10.80;99.90;;;;;;5072491;28;20503;-71
2022/06/11 10:17:44;;;;;;;2.20;0.80;;;10.80;99.90;;;;;;5072099;28;20024;-72
2022/06/11 10:20:29;;;;;;;3.10;1.17;;;10.80;99.90;;;;;;5072248;28;20032;-72
2022/06/11 10:23:03;;;;;;;4.15;1.02;;;10.70;99.90;;;;;;5072486;28;20091;-72
2022/06/11 10:25:59;;;;;;;3.63;0.98;;;10.70;99.90;;;;;;5072419;28;20028;-72
2022/06/11 10:28:46;;;;;;;2.65;0.93;;;10.80;99.90;;;;;;5072107;28;20021;-71
2022/06/11 10:31:23;;;;;;;3.05;0.88;;;10.80;99.90;;;;;;5072267;28;20020;-71
2022/06/11 10:34:09;;;;;;;3.63;1.13;;;10.80;99.90;;;;;;5072005;28;20021;-71
2022/06/11 10:37:00;;;;;;;3.00;0.90;;;10.70;99.90;;;;;;5075629;28;20025;-73
2022/06/11 10:40:06;;;;;;;3.97;1.23;;;10.70;99.90;;;;;;5068422;28;20082;-73
2022/06/11 10:42:58;;;;;;;2.75;0.80;;;10.70;99.90;;;;;;5075535;28;20021;-73
2022/06/11 10:45:31;;;;;;;1.80;1.00;;;10.60;99.90;;;;;;5069993;28;20029;-72
2022/06/11 10:48:01;;;;;;;3.40;0.70;;;10.60;99.90;;;;;;5075787;28;20354;-72
2022/06/11 10:50:35;;;;;;;1.98;0.75;;;10.60;99.90;;;;;;5074144;28;20440;-73
2022/06/11 10:53:26;;;;;;;1.75;0.70;;;10.50;99.90;;;;;;5074200;28;20028;-72
2022/06/11 10:55:55;;;;;;;;;;;10.60;99.90;;;;;;5075872;28;20031;-72
2022/06/11 10:58:31;;;;;;;2.25;0.90;;;10.50;99.90;;;;;;5075236;28;19912;-72
2022/06/11 11:01:14;;;;;;;3.40;1.08;;;10.40;99.90;;;;;;5075659;28;20103;-73
2022/06/11 11:03:48;;;;;;;1.90;0.73;;;10.40;99.90;;;;;;5075460;28;20017;-71
2022/06/11 11:06:34;;;;;;;3.42;1.05;;;10.40;99.90;;;;;;5073861;28;20039;-71
2022/06/11 11:09:07;;;;;;;5.68;1.23;;;10.30;99.90;;;;;;5075432;28;20068;-71
2022/06/11 11:11:47;;;;;;;5.93;1.15;;;10.20;99.90;;;;;;5075235;28;20020;-72
2022/06/11 11:14:32;;;;;;;3.67;0.90;;;10.20;99.90;;;;;;5074924;28;20020;-70
2022/06/11 11:17:06;;;;;;;2.50;0.88;;;10.20;99.90;;;;;;5074941;28;20073;-71
2022/06/11 11:19:39;;;;;;;3.72;1.10;;;10.10;99.90;;;;;;5074848;28;20021;-71
2022/06/11 11:22:06;;;;;;;4.47;1.13;;;10.10;99.90;;;;;;5074934;28;20472;-71
2022/06/11 11:24:43;;;;;;;2.45;0.93;;;10.10;99.90;;;;;;5075399;28;20023;-71
2022/06/11 11:27:17;;;;;;;5.97;1.20;;;10.00;99.90;;;;;;5074803;28;20112;-71
2022/06/11 11:29:55;;;;;;;2.08;0.80;;;10.00;99.90;;;;;;5074694;28;20062;-72
2022/06/11 11:32:34;;;;;;;3.38;1.10;;;9.90;99.90;;;;;;5073340;28;20040;-72
2022/06/11 11:35:28;;;;;;;3.10;0.80;;;9.90;99.90;;;;;;5075139;28;20085;-72
2022/06/11 11:38:20;;;;;;;2.85;1.00;;;9.90;99.90;;;;;;5074699;28;20063;-71
2022/06/11 11:40:53;;;;;;;3.05;0.80;;;9.80;99.90;;;;;;5073211;28;20025;-72
2022/06/11 11:43:23;;;;;;;4.82;1.20;;;9.80;99.90;;;;;;5073148;28;20024;-72
2022/06/11 11:46:02;;;;;;;2.67;0.75;;;9.60;99.90;;;;;;5072094;28;20052;-72
2022/06/11 11:48:32;;;;;;;3.38;1.00;;;9.60;99.90;;;;;;5074460;28;20012;-72
2022/06/11 11:51:39;;;;;;;6.40;1.13;;;9.60;99.90;;;;;;5074334;28;20028;-72
2022/06/11 11:54:23;;;;;;;3.15;1.30;;;9.60;99.90;;;;;;5032127;28;20026;-72
2022/06/11 11:57:14;;;;;;;3.33;0.82;;;9.70;99.90;;;;;;5072381;28;20047;-72
2022/06/11 11:59:53;;;;;;;2.55;0.82;;;9.70;99.90;;;;;;5074220;28;20032;-71
2022/06/11 12:02:26;;;;;;;3.72;0.80;;;9.70;99.90;;;;;;5074154;28;20012;-72
2022/06/11 12:05:02;;;;;;;4.10;1.48;;;9.60;99.90;;;;;;5074399;28;20096;-71
2022/06/11 12:07:42;;;;;;;5.53;1.35;;;9.70;99.90;;;;;;5073855;28;20056;-71
2022/06/11 12:10:18;;;;;;;4.10;0.93;;;9.70;99.90;;;;;;5072583;28;20074;-71
2022/06/11 12:12:51;;;;;;;3.05;1.00;;;9.60;99.90;;;;;;5072564;28;20029;-71
2022/06/11 12:15:50;;;;;;;2.58;0.93;;;9.60;99.90;;;;;;5073796;28;20025;-71
2022/06/11 12:18:21;;;;;;;5.15;1.42;;;9.50;99.90;;;;;;5072967;28;20025;-71
2022/06/11 12:20:55;;;;;;;3.92;1.10;;;9.50;99.90;;;;;;5073781;28;20485;-70
2022/06/11 12:23:44;;;;;;;3.17;1.00;;;9.40;99.90;;;;;;5073885;28;20016;-71
2022/06/11 12:26:19;;;;;;;3.97;0.90;;;9.40;99.90;;;;;;5073567;28;20070;-69
2022/06/11 12:28:54;;;;;;;3.17;0.90;;;9.40;99.90;;;;;;5073528;28;20017;-70
2022/06/11 12:31:22;;;;;;;4.47;0.90;;;9.40;99.90;;;;;;5072370;28;20029;-70
2022/06/11 12:33:52;;;;;;;4.00;1.30;;;9.30;99.90;;;;;;5072200;28;20107;-70
2022/06/11 12:36:57;;;;;;;4.13;1.10;;;9.40;99.90;;;;;;5073431;28;20024;-70
2022/06/11 12:39:59;;;;;;;4.32;1.15;;;9.30;99.90;;;;;;5057626;28;20059;-70
2022/06/11 12:42:45;;;;;;;2.53;0.90;;;9.30;99.90;;;;;;5073902;28;20020;-71
2022/06/11 12:45:44;;;;;;;4.95;1.75;;;9.20;99.90;;;;;;5073361;28;20074;-71
2022/06/11 12:48:34;;;;;;;3.28;1.02;;;9.20;99.90;;;;;;5065461;28;20067;-71
2022/06/11 12:51:04;;;;;;;2.70;0.90;;;9.30;99.90;;;;;;5073266;28;20065;-71
2022/06/11 12:54:18;;;;;;;6.10;1.35;;;9.30;99.90;;;;;;5071867;28;20024;-71
2022/06/11 12:56:48;;;;;;;5.63;1.63;;;9.30;99.90;;;;;;5067317;28;20040;-71
2022/06/11 12:59:33;;;;;;;4.57;1.38;;;9.20;99.90;;;;;;5073170;28;20055;-71
2022/06/11 13:02:23;;;;;;;5.95;1.73;;;9.20;99.90;;;;;;5073602;28;20047;-70
2022/06/11 13:04:58;;;;;;;5.97;1.63;;;9.00;99.90;;;;;;5073193;28;20048;-70
2022/06/11 13:07:50;;;;;;;2.67;1.50;;;8.90;99.90;;;;;;5071547;28;20072;-70
2022/06/11 13:11:00;;;;;;;5.47;1.95;;;8.80;99.90;;;;;;5071781;28;20490;-71
2022/06/11 13:13:38;;;;;;;5.18;1.60;;;8.80;99.90;;;;;;5073004;28;20392;-71
2022/06/11 13:16:29;;;;;;;4.20;1.50;;;8.80;99.90;;;;;;5073226;28;20047;-72
2022/06/11 13:18:59;;;;;;;4.50;1.60;;;8.80;99.90;;;;;;5073014;28;20027;-71
2022/06/11 13:21:31;;;;;;;3.60;1.50;;;8.70;99.90;;;;;;5072971;28;20250;-71
2022/06/11 13:24:05;;;;;;;5.28;1.63;;;8.60;99.90;;;;;;5073211;28;20640;-72
2022/06/11 13:27:02;;;;;;;4.50;1.20;;;8.60;99.90;;;;;;5073191;28;20025;-71
2022/06/11 13:29:29;;;;;;;4.00;1.23;;;8.60;99.90;;;;;;5073089;28;20137;-72